Time;durP1;ratioP1;P1;durP2;ratioP2;P2;SDS_P1;SDS_P2;PMS_P1;PMS_P2;Temp;Humidity;BMP_temperature;BMP_pressure;BME280_temperature;BME280_humidity;BME280_pressure;Samples;Min_cycle;Max_cycle;Signal;HPM_P1;HPM_P2
2022/03/02 00:01:00;;;;;;;;;;;;;;;;;;2205830;59;1266;-73
2022/03/02 00:03:33;;;;;;;;;;;;;;;;;;2206990;67;1056;-74
2022/03/02 00:06:06;;;;;;;;;;;;;;;;;;2206003;59;1181;-74
2022/03/02 00:08:39;;;;;;;;;;;;;;;;;;2206505;59;1317;-73
2022/03/02 00:11:13;;;;;;;;;;;;;;;;;;2206483;67;1251;-73
2022/03/02 00:13:46;;;;;;;;;;;;;;;;;;2205875;59;2081;-73
2022/03/02 00:16:22;;;;;;;;;;;;;;;;;;2205524;60;1238;-73
2022/03/02 00:18:56;;;;;;;;;;;;;;;;;;2206997;59;1971;-73
2022/03/02 00:21:29;;;;;;;;;;;;;;;;;;2206342;59;1215;-73
2022/03/02 00:24:03;;;;;;;;;;;;;;;;;;2205208;59;1237;-73
2022/03/02 00:26:38;;;;;;;;;;;;;;;;;;2206151;59;1168;-73
2022/03/02 00:29:11;;;;;;;;;;;;;;;;;;2206220;67;1307;-73
2022/03/02 00:31:47;;;;;;;;;;;;;;;;;;2205186;67;1121;-71
2022/03/02 00:34:20;;;;;;;;;;;;;;;;;;2206829;67;1299;-71
2022/03/02 00:36:53;;;;;;;;;;;;;;;;;;2205453;59;1357;-71
2022/03/02 00:39:26;;;;;;;;;;;;;;;;;;2206756;59;2185;-71
2022/03/02 00:42:00;;;;;;;;;;;;;;;;;;2206146;59;1244;-71
2022/03/02 00:44:33;;;;;;;;;;;;;;;;;;2207051;67;1237;-71
2022/03/02 00:47:09;;;;;;;;;;;;;;;;;;2207343;59;1332;-71
2022/03/02 00:49:43;;;;;;;;;;;;;;;;;;2206321;59;1262;-71
2022/03/02 00:52:16;;;;;;;;;;;;;;;;;;2207591;67;1172;-71
2022/03/02 00:54:49;;;;;;;;;;;;;;;;;;2207585;59;2269;-71
2022/03/02 00:57:22;;;;;;;;;;;;;;;;;;2207408;59;1232;-71
2022/03/02 00:59:56;;;;;;;;;;;;;;;;;;2206892;59;1932;-70
2022/03/02 01:02:31;;;;;;;;;;;;;;;;;;2205413;60;1189;-71
2022/03/02 01:05:05;;;;;;;;;;;;;;;;;;2206733;67;1275;-71
2022/03/02 01:07:39;;;;;;;;;;;;;;;;;;2207041;67;1167;-71
2022/03/02 01:10:12;;;;;;;;;;;;;;;;;;2206738;67;1124;-71
2022/03/02 01:12:45;;;;;;;;;;;;;;;;;;2207043;59;2114;-71
2022/03/02 01:15:19;;;;;;;;;;;;;;;;;;2206771;59;1281;-71
2022/03/02 01:17:55;;;;;;;;;;;;;;;;;;2206795;59;1824;-70
2022/03/02 01:20:28;;;;;;;;;;;;;;;;;;2207026;59;1928;-71
2022/03/02 01:23:01;;;;;;;;;;;;;;;;;;2206968;59;1119;-71
2022/03/02 01:25:35;;;;;;;;;;;;;;;;;;2206077;67;1188;-70
2022/03/02 01:28:08;;;;;;;;;;;;;;;;;;2207107;59;1322;-70
2022/03/02 01:30:41;;;;;;;;;;;;;;;;;;2206340;67;1116;-71
2022/03/02 01:33:17;;;;;;;;;;;;;;;;;;2206645;67;1096;-71
2022/03/02 01:35:50;;;;;;;;;;;;;;;;;;2206899;67;1140;-70
2022/03/02 01:38:24;;;;;;;;;;;;;;;;;;2206316;59;1688;-71
2022/03/02 01:40:57;;;;;;;;;;;;;;;;;;2205906;59;1925;-71
2022/03/02 01:43:30;;;;;;;;;;;;;;;;;;2206233;67;1337;-71
2022/03/02 01:46:03;;;;;;;;;;;;;;;;;;2206784;67;1134;-70
2022/03/02 01:48:39;;;;;;;;;;;;;;;;;;2206614;59;1753;-70
2022/03/02 01:51:12;;;;;;;;;;;;;;;;;;2207517;59;1198;-70
2022/03/02 01:53:46;;;;;;;;;;;;;;;;;;2206710;59;2140;-71
2022/03/02 01:56:19;;;;;;;;;;;;;;;;;;2206204;59;1771;-71
2022/03/02 01:58:52;;;;;;;;;;;;;;;;;;2207209;59;1941;-70
2022/03/02 02:01:25;;;;;;;;;;;;;;;;;;2206708;67;1227;-70
2022/03/02 02:04:02;;;;;;;;;;;;;;;;;;2207679;59;1206;-70
2022/03/02 02:06:36;;;;;;;;;;;;;;;;;;2206641;59;1590;-71
2022/03/02 02:09:10;;;;;;;;;;;;;;;;;;2206369;59;2084;-71
2022/03/02 02:11:43;;;;;;;;;;;;;;;;;;2206035;59;1605;-70
2022/03/02 02:14:16;;;;;;;;;;;;;;;;;;2205584;59;2284;-71
2022/03/02 02:16:50;;;;;;;;;;;;;;;;;;2206049;59;1123;-70
2022/03/02 02:19:26;;;;;;;;;;;;;;;;;;2206559;59;1934;-70
2022/03/02 02:22:01;;;;;;;;;;;;;;;;;;2206105;67;1142;-70
2022/03/02 02:24:35;;;;;;;;;;;;;;;;;;2206092;59;1133;-71
2022/03/02 02:27:08;;;;;;;;;;;;;;;;;;2205955;59;1154;-70
2022/03/02 02:29:41;;;;;;;;;;;;;;;;;;2206239;67;1239;-70
2022/03/02 02:32:14;;;;;;;;;;;;;;;;;;2205809;67;1224;-70
2022/03/02 02:34:48;;;;;;;;;;;;;;;;;;2205638;59;1192;-70
2022/03/02 02:37:24;;;;;;;;;;;;;;;;;;2209682;67;1114;-70
2022/03/02 02:39:57;;;;;;;;;;;;;;;;;;2206694;59;1932;-70
2022/03/02 02:42:31;;;;;;;;;;;;;;;;;;2206213;67;1225;-71
2022/03/02 02:45:04;;;;;;;;;;;;;;;;;;2205873;60;1216;-70
2022/03/02 02:47:38;;;;;;;;;;;;;;;;;;2206141;59;1398;-70
2022/03/02 02:50:18;;;;;;;;;;;;;;;;;;2207139;59;1407;-70
2022/03/02 02:52:54;;;;;;;;;;;;;;;;;;2205519;67;1144;-71
2022/03/02 02:55:28;;;;;;;;;;;;;;;;;;2206302;59;1940;-71
2022/03/02 02:58:02;;;;;;;;;;;;;;;;;;2207043;59;1752;-70
2022/03/02 03:00:37;;;;;;;;;;;;;;;;;;2206656;67;1934;-70
2022/03/02 03:03:11;;;;;;;;;;;;;;;;;;2206152;59;1260;-70
2022/03/02 03:05:45;;;;;;;;;;;;;;;;;;2206099;59;1109;-70
2022/03/02 03:08:21;;;;;;;;;;;;;;;;;;2206424;67;1281;-71
2022/03/02 03:10:54;;;;;;;;;;;;;;;;;;2206996;59;1233;-70
2022/03/02 03:13:27;;;;;;;;;;;;;;;;;;2207564;59;2203;-71
2022/03/02 03:16:01;;;;;;;;;;;;;;;;;;2207207;59;1894;-70
2022/03/02 03:18:34;;;;;;;;;;;;;;;;;;2206745;59;1567;-70
2022/03/02 03:21:07;;;;;;;;;;;;;;;;;;2207185;67;1933;-71
2022/03/02 03:23:43;;;;;;;;;;;;;;;;;;2206141;59;1212;-70
2022/03/02 03:26:16;;;;;;;;;;;;;;;;;;2206797;67;1206;-71
2022/03/02 03:28:49;;;;;;;;;;;;;;;;;;2206554;59;1231;-70
2022/03/02 03:31:22;;;;;;;;;;;;;;;;;;2207698;67;1194;-70
2022/03/02 03:33:56;;;;;;;;;;;;;;;;;;2206327;59;1216;-71
2022/03/02 03:36:29;;;;;;;;;;;;;;;;;;2205654;67;1426;-71
2022/03/02 03:39:05;;;;;;;;;;;;;;;;;;2207257;59;1984;-71
2022/03/02 03:41:38;;;;;;;;;;;;;;;;;;2205811;59;1939;-70
2022/03/02 03:44:11;;;;;;;;;;;;;;;;;;2206686;59;1298;-70
2022/03/02 03:46:44;;;;;;;;;;;;;;;;;;2205881;59;1075;-70
2022/03/02 03:49:17;;;;;;;;;;;;;;;;;;2206235;59;1673;-70
2022/03/02 03:51:51;;;;;;;;;;;;;;;;;;2207322;67;1235;-71
2022/03/02 03:54:27;;;;;;;;;;;;;;;;;;2206093;67;1288;-70
2022/03/02 03:57:00;;;;;;;;;;;;;;;;;;2205903;67;1188;-70
2022/03/02 03:59:33;;;;;;;;;;;;;;;;;;2206933;59;1936;-70
2022/03/02 04:02:06;;;;;;;;;;;;;;;;;;2206735;67;1243;-70
2022/03/02 04:04:40;;;;;;;;;;;;;;;;;;2206094;60;1096;-70
2022/03/02 04:07:13;;;;;;;;;;;;;;;;;;2206002;67;1236;-70
2022/03/02 04:09:48;;;;;;;;;;;;;;;;;;2205427;59;1253;-70
2022/03/02 04:12:22;;;;;;;;;;;;;;;;;;2206722;59;2006;-70
2022/03/02 04:14:55;;;;;;;;;;;;;;;;;;2207126;59;1423;-70
2022/03/02 04:17:29;;;;;;;;;;;;;;;;;;2205236;67;1288;-70
2022/03/02 04:20:02;;;;;;;;;;;;;;;;;;2205890;59;2325;-70
2022/03/02 04:22:35;;;;;;;;;;;;;;;;;;2205846;59;1125;-71
2022/03/02 04:25:11;;;;;;;;;;;;;;;;;;2205586;59;1251;-70
2022/03/02 04:27:44;;;;;;;;;;;;;;;;;;2206763;59;1202;-70
2022/03/02 04:30:17;;;;;;;;;;;;;;;;;;2206934;67;1106;-70
2022/03/02 04:32:51;;;;;;;;;;;;;;;;;;2207494;59;1119;-70
2022/03/02 04:35:24;;;;;;;;;;;;;;;;;;2205981;59;2419;-70
2022/03/02 04:37:57;;;;;;;;;;;;;;;;;;2207069;59;1701;-71
2022/03/02 04:40:34;;;;;;;;;;;;;;;;;;2206274;59;1981;-70
2022/03/02 04:43:07;;;;;;;;;;;;;;;;;;2206290;59;1143;-71
2022/03/02 04:45:40;;;;;;;;;;;;;;;;;;2207012;67;1051;-71
2022/03/02 04:48:13;;;;;;;;;;;;;;;;;;2206904;59;1376;-71
2022/03/02 04:50:46;;;;;;;;;;;;;;;;;;2206570;59;1562;-70
2022/03/02 04:53:23;;;;;;;;;;;;;;;;;;2206488;59;2017;-70
2022/03/02 04:55:59;;;;;;;;;;;;;;;;;;2206674;67;1210;-70
2022/03/02 04:58:32;;;;;;;;;;;;;;;;;;2211839;59;3647;-69
2022/03/02 05:01:05;;;;;;;;;;;;;;;;;;2206938;59;1943;-70
2022/03/02 05:03:38;;;;;;;;;;;;;;;;;;2208735;59;1521;-71
2022/03/02 05:06:11;;;;;;;;;;;;;;;;;;2209738;67;1186;-70
2022/03/02 05:08:44;;;;;;;;;;;;;;;;;;2210912;67;1632;-69
2022/03/02 05:11:20;;;;;;;;;;;;;;;;;;2211922;59;1140;-70
2022/03/02 05:13:53;;;;;;;;;;;;;;;;;;2210400;59;2383;-69
2022/03/02 05:16:27;;;;;;;;;;;;;;;;;;2210843;67;1331;-70
2022/03/02 05:19:00;;;;;;;;;;;;;;;;;;2209294;59;1889;-70
2022/03/02 05:21:33;;;;;;;;;;;;;;;;;;2210724;59;1967;-69
2022/03/02 05:24:07;;;;;;;;;;;;;;;;;;2210694;59;1086;-69
2022/03/02 05:26:43;;;;;;;;;;;;;;;;;;2210984;59;1119;-70
2022/03/02 05:29:16;;;;;;;;;;;;;;;;;;2210452;67;1103;-69
2022/03/02 05:31:49;;;;;;;;;;;;;;;;;;2210446;59;1550;-69
2022/03/02 05:34:22;;;;;;;;;;;;;;;;;;2210060;59;1439;-69
2022/03/02 05:36:55;;;;;;;;;;;;;;;;;;2211178;67;1254;-68
2022/03/02 05:39:28;;;;;;;;;;;;;;;;;;2210240;59;1808;-70
2022/03/02 05:42:05;;;;;;;;;;;;;;;;;;2210924;67;1925;-68
2022/03/02 05:44:38;;;;;;;;;;;;;;;;;;2210521;59;1161;-68
2022/03/02 05:47:11;;;;;;;;;;;;;;;;;;2211844;59;1315;-69
2022/03/02 05:49:45;;;;;;;;;;;;;;;;;;2209823;59;1630;-69
2022/03/02 05:52:18;;;;;;;;;;;;;;;;;;2210428;67;1109;-68
2022/03/02 05:54:51;;;;;;;;;;;;;;;;;;2210926;59;2240;-69
2022/03/02 05:57:27;;;;;;;;;;;;;;;;;;2211033;67;1259;-68
2022/03/02 06:00:00;;;;;;;;;;;;;;;;;;2209473;59;1955;-68
2022/03/02 06:02:33;;;;;;;;;;;;;;;;;;2210348;59;1923;-69
2022/03/02 06:05:09;;;;;;;;;;;;;;;;;;2210423;67;1198;-69
2022/03/02 06:07:42;;;;;;;;;;;;;;;;;;2210652;59;1746;-68
2022/03/02 06:10:16;;;;;;;;;;;;;;;;;;2210777;59;1219;-68
2022/03/02 06:12:52;;;;;;;;;;;;;;;;;;2210720;59;2080;-69
2022/03/02 06:15:25;;;;;;;;;;;;;;;;;;2210990;67;1058;-67
2022/03/02 06:18:01;;;;;;;;;;;;;;;;;;2210917;59;1795;-68
2022/03/02 06:20:34;;;;;;;;;;;;;;;;;;2210866;67;1942;-68
2022/03/02 06:23:07;;;;;;;;;;;;;;;;;;2210666;67;1091;-68
2022/03/02 06:25:41;;;;;;;;;;;;;;;;;;2210007;59;1589;-68
2022/03/02 06:28:17;;;;;;;;;;;;;;;;;;2210803;59;1200;-68
2022/03/02 06:30:50;;;;;;;;;;;;;;;;;;2210988;67;1073;-68
2022/03/02 06:33:23;;;;;;;;;;;;;;;;;;2211252;59;1244;-68
2022/03/02 06:35:56;;;;;;;;;;;;;;;;;;2210611;59;1192;-68
2022/03/02 06:38:30;;;;;;;;;;;;;;;;;;2210258;59;1711;-68
2022/03/02 06:41:04;;;;;;;;;;;;;;;;;;2210386;67;1944;-68
2022/03/02 06:43:41;;;;;;;;;;;;;;;;;;2211644;63;1478;-68
2022/03/02 06:46:18;;;;;;;;;;;;;;;;;;2211557;67;1176;-68
2022/03/02 06:48:53;;;;;;;;;;;;;;;;;;2211508;59;1314;-68
2022/03/02 06:51:27;;;;;;;;;;;;;;;;;;2211659;59;1129;-68
2022/03/02 06:54:00;;;;;;;;;;;;;;;;;;2210477;59;1949;-68
2022/03/02 06:56:38;;;;;;;;;;;;;;;;;;2211263;67;1195;-68
2022/03/02 06:59:14;;;;;;;;;;;;;;;;;;2210855;59;1832;-69
2022/03/02 07:01:51;;;;;;;;;;;;;;;;;;2210500;59;1944;-68
2022/03/02 07:04:24;;;;;;;;;;;;;;;;;;2211462;67;1218;-68
2022/03/02 07:06:58;;;;;;;;;;;;;;;;;;2211347;67;1299;-68
2022/03/02 07:09:32;;;;;;;;;;;;;;;;;;2210477;59;1841;-68
2022/03/02 07:12:06;;;;;;;;;;;;;;;;;;2211395;59;1952;-68
2022/03/02 07:14:42;;;;;;;;;;;;;;;;;;2210412;59;1357;-69
2022/03/02 07:17:15;;;;;;;;;;;;;;;;;;2211121;59;1248;-68
2022/03/02 07:19:48;;;;;;;;;;;;;;;;;;2209238;59;1790;-69
2022/03/02 07:22:22;;;;;;;;;;;;;;;;;;2209603;59;1936;-68
2022/03/02 07:24:56;;;;;;;;;;;;;;;;;;2211329;67;1284;-68
2022/03/02 07:27:29;;;;;;;;;;;;;;;;;;2210295;67;1106;-68
2022/03/02 07:30:06;;;;;;;;;;;;;;;;;;2210673;67;1183;-68
2022/03/02 07:32:41;;;;;;;;;;;;;;;;;;2210718;59;1762;-69
2022/03/02 07:35:15;;;;;;;;;;;;;;;;;;2210832;67;1156;-69
2022/03/02 07:37:49;;;;;;;;;;;;;;;;;;2210922;59;1218;-69
2022/03/02 07:40:22;;;;;;;;;;;;;;;;;;2210136;59;1943;-69
2022/03/02 07:42:55;;;;;;;;;;;;;;;;;;2210349;59;2254;-69
2022/03/02 07:45:31;;;;;;;;;;;;;;;;;;2210581;67;1172;-69
2022/03/02 07:48:04;;;;;;;;;;;;;;;;;;2210562;59;1365;-69
2022/03/02 07:50:38;;;;;;;;;;;;;;;;;;2211587;67;1080;-69
2022/03/02 07:53:11;;;;;;;;;;;;;;;;;;2210823;59;1199;-69
2022/03/02 07:55:45;;;;;;;;;;;;;;;;;;2211094;67;2358;-68
2022/03/02 07:58:19;;;;;;;;;;;;;;;;;;2210401;59;1733;-69
2022/03/02 08:00:56;;;;;;;;;;;;;;;;;;2211272;59;1138;-69
2022/03/02 08:03:30;;;;;;;;;;;;;;;;;;2211422;67;1306;-69
2022/03/02 08:06:03;;;;;;;;;;;;;;;;;;2210115;59;2063;-69
2022/03/02 08:08:36;;;;;;;;;;;;;;;;;;2210710;59;1249;-69
2022/03/02 08:11:10;;;;;;;;;;;;;;;;;;2210159;59;1833;-69
2022/03/02 08:13:43;;;;;;;;;;;;;;;;;;2210380;59;2100;-69
2022/03/02 08:16:19;;;;;;;;;;;;;;;;;;2210662;59;1255;-69
2022/03/02 08:18:52;;;;;;;;;;;;;;;;;;2210460;59;1830;-69
2022/03/02 08:21:26;;;;;;;;;;;;;;;;;;2210460;59;2167;-69
2022/03/02 08:24:00;;;;;;;;;;;;;;;;;;2210127;59;2093;-69
2022/03/02 08:26:35;;;;;;;;;;;;;;;;;;2210834;67;1222;-69
2022/03/02 08:29:08;;;;;;;;;;;;;;;;;;2203829;59;1629;-69
2022/03/02 08:31:45;;;;;;;;;;;;;;;;;;2209779;59;1846;-69
2022/03/02 08:34:18;;;;;;;;;;;;;;;;;;2208915;59;1930;-69
2022/03/02 08:36:52;;;;;;;;;;;;;;;;;;2210951;67;1317;-69
2022/03/02 08:39:26;;;;;;;;;;;;;;;;;;2205429;59;2489;-69
2022/03/02 08:41:59;;;;;;;;;;;;;;;;;;2210103;67;1937;-69
2022/03/02 08:44:32;;;;;;;;;;;;;;;;;;2210889;59;1142;-69
2022/03/02 08:47:09;;;;;;;;;;;;;;;;;;2209423;59;1719;-69
2022/03/02 08:49:42;;;;;;;;;;;;;;;;;;2209375;59;1926;-69
2022/03/02 08:52:15;;;;;;;;;;;;;;;;;;2209889;59;1862;-69
2022/03/02 08:54:49;;;;;;;;;;;;;;;;;;2211111;67;2190;-70
2022/03/02 08:57:23;;;;;;;;;;;;;;;;;;2210616;59;1907;-69
2022/03/02 08:59:57;;;;;;;;;;;;;;;;;;2209607;59;1749;-69
2022/03/02 09:02:33;;;;;;;;;;;;;;;;;;2210738;59;1984;-69
2022/03/02 09:05:07;;;;;;;;;;;;;;;;;;2210927;67;1303;-69
2022/03/02 09:07:40;;;;;;;;;;;;;;;;;;2210855;67;1055;-69
2022/03/02 09:10:13;;;;;;;;;;;;;;;;;;2211488;67;1350;-69
2022/03/02 09:12:46;;;;;;;;;;;;;;;;;;2210254;59;2114;-69
2022/03/02 09:15:20;;;;;;;;;;;;;;;;;;2209984;59;1967;-69
2022/03/02 09:17:56;;;;;;;;;;;;;;;;;;2210820;59;1273;-68
2022/03/02 09:20:30;;;;;;;;;;;;;;;;;;2208973;59;1828;-69
2022/03/02 09:23:05;;;;;;;;;;;;;;;;;;2210990;67;1977;-69
2022/03/02 09:25:40;;;;;;;;;;;;;;;;;;2211265;59;1219;-68
2022/03/02 09:28:13;;;;;;;;;;;;;;;;;;2210269;59;1875;-69
2022/03/02 09:30:46;;;;;;;;;;;;;;;;;;2210817;59;1651;-70
2022/03/02 09:33:24;;;;;;;;;;;;;;;;;;2209730;59;1918;-69
2022/03/02 09:35:58;;;;;;;;;;;;;;;;;;2210497;67;1139;-69
2022/03/02 09:38:32;;;;;;;;;;;;;;;;;;2208363;59;2345;-69
2022/03/02 09:41:07;;;;;;;;;;;;;;;;;;2208299;59;2403;-69
2022/03/02 09:43:44;;;;;;;;;;;;;;;;;;2209767;59;1933;-69
2022/03/02 09:46:20;;;;;;;;;;;;;;;;;;2211344;59;1208;-69
2022/03/02 09:49:01;;;;;;;;;;;;;;;;;;2211063;59;1397;-69
2022/03/02 09:51:35;;;;;;;;;;;;;;;;;;2208973;59;2444;-69
2022/03/02 09:54:08;;;;;;;;;;;;;;;;;;2208880;59;1934;-69
2022/03/02 09:56:42;;;;;;;;;;;;;;;;;;2211190;59;1054;-69
2022/03/02 09:59:16;;;;;;;;;;;;;;;;;;2209593;59;1876;-69
2022/03/02 10:01:51;;;;;;;;;;;;;;;;;;2211233;67;1931;-69
2022/03/02 10:04:31;;;;;;;;;;;;;;;;;;2211736;67;1308;-69
2022/03/02 10:09:59;;;;;;;;;;;;;;;;;;2211172;67;1313;-69
2022/03/02 10:12:33;;;;;;;;;;;;;;;;;;2210548;59;1915;-69
2022/03/02 10:15:07;;;;;;;;;;;;;;;;;;2211427;59;1722;-69
2022/03/02 10:17:42;;;;;;;;;;;;;;;;;;2211805;59;1167;-70
2022/03/02 10:20:19;;;;;;;;;;;;;;;;;;2211660;59;2145;-70
2022/03/02 10:23:05;;;;;;;;;;;;;;;;;;2211648;67;1923;-69
2022/03/02 10:25:53;;;;;;;;;;;;;;;;;;2209926;59;2168;-69
2022/03/02 10:28:28;;;;;;;;;;;;;;;;;;2208770;59;1779;-69
2022/03/02 10:31:08;;;;;;;;;;;;;;;;;;2211510;59;1183;-71
2022/03/02 10:33:45;;;;;;;;;;;;;;;;;;2210900;59;1506;-70
2022/03/02 10:36:21;;;;;;;;;;;;;;;;;;2211330;59;1141;-69
2022/03/02 10:39:03;;;;;;;;;;;;;;;;;;2210723;59;1678;-70
2022/03/02 10:41:39;;;;;;;;;;;;;;;;;;2207341;59;3075;-70
2022/03/02 10:44:18;;;;;;;;;;;;;;;;;;2210502;67;1932;-69
2022/03/02 10:46:57;;;;;;;;;;;;;;;;;;2212221;67;1202;-69
2022/03/02 10:49:31;;;;;;;;;;;;;;;;;;2211719;59;1266;-70
2022/03/02 10:52:07;;;;;;;;;;;;;;;;;;2211705;67;1319;-69
2022/03/02 10:54:42;;;;;;;;;;;;;;;;;;2209900;59;2049;-69
2022/03/02 10:57:18;;;;;;;;;;;;;;;;;;2211796;67;1271;-69
2022/03/02 10:59:54;;;;;;;;;;;;;;;;;;2212022;53;3571;-68
2022/03/02 11:02:27;;;;;;;;;;;;;;;;;;2210149;59;1988;-68
2022/03/02 11:05:02;;;;;;;;;;;;;;;;;;2211978;59;1674;-69
2022/03/02 11:07:38;;;;;;;;;;;;;;;;;;2211759;59;1199;-69
2022/03/02 11:10:13;;;;;;;;;;;;;;;;;;2209709;59;1281;-69
2022/03/02 11:12:47;;;;;;;;;;;;;;;;;;2208799;59;1959;-69
2022/03/02 11:15:21;;;;;;;;;;;;;;;;;;2208339;59;1220;-69
2022/03/02 11:17:55;;;;;;;;;;;;;;;;;;2208980;59;1241;-68
2022/03/02 11:20:31;;;;;;;;;;;;;;;;;;2208941;59;1962;-69
2022/03/02 11:23:07;;;;;;;;;;;;;;;;;;2208549;59;2003;-68
2022/03/02 11:25:44;;;;;;;;;;;;;;;;;;2209021;59;1190;-69
2022/03/02 11:28:19;;;;;;;;;;;;;;;;;;2208473;59;1409;-68
2022/03/02 11:30:53;;;;;;;;;;;;;;;;;;2208934;67;1145;-68
2022/03/02 11:33:28;;;;;;;;;;;;;;;;;;2208680;59;1061;-68
2022/03/02 11:36:05;;;;;;;;;;;;;;;;;;2209003;59;1249;-69
2022/03/02 11:38:41;;;;;;;;;;;;;;;;;;2208719;59;1515;-69
2022/03/02 11:41:16;;;;;;;;;;;;;;;;;;2206879;59;2544;-69
2022/03/02 11:43:49;;;;;;;;;;;;;;;;;;2207950;59;2227;-69
2022/03/02 11:46:22;;;;;;;;;;;;;;;;;;2208143;59;1230;-69
2022/03/02 11:48:55;;;;;;;;;;;;;;;;;;2209154;59;1287;-69
2022/03/02 11:51:30;;;;;;;;;;;;;;;;;;2208258;59;1131;-68
2022/03/02 11:54:09;;;;;;;;;;;;;;;;;;2208767;59;1806;-68
2022/03/02 11:56:42;;;;;;;;;;;;;;;;;;2208986;59;1192;-68
2022/03/02 11:59:15;;;;;;;;;;;;;;;;;;2207931;59;1580;-69
2022/03/02 12:01:50;;;;;;;;;;;;;;;;;;2208836;59;1326;-69
2022/03/02 12:04:23;;;;;;;;;;;;;;;;;;2206784;59;1930;-69
2022/03/02 12:06:56;;;;;;;;;;;;;;;;;;2209458;59;1152;-69
2022/03/02 12:09:33;;;;;;;;;;;;;;;;;;2208216;59;1211;-69
2022/03/02 12:12:11;;;;;;;;;;;;;;;;;;2208263;67;2159;-69
2022/03/02 12:14:45;;;;;;;;;;;;;;;;;;2208344;59;1250;-69
2022/03/02 12:17:20;;;;;;;;;;;;;;;;;;2207738;59;1186;-69
2022/03/02 12:19:54;;;;;;;;;;;;;;;;;;2208385;59;1593;-69
2022/03/02 12:22:31;;;;;;;;;;;;;;;;;;2207803;59;1975;-70
2022/03/02 12:25:09;;;;;;;;;;;;;;;;;;2207937;59;1142;-69
2022/03/02 12:27:43;;;;;;;;;;;;;;;;;;2208873;59;1273;-69
2022/03/02 12:30:16;;;;;;;;;;;;;;;;;;2208222;59;1208;-69
2022/03/02 12:32:49;;;;;;;;;;;;;;;;;;2208240;59;1197;-69
2022/03/02 12:35:23;;;;;;;;;;;;;;;;;;2207856;59;1177;-69
2022/03/02 12:37:59;;;;;;;;;;;;;;;;;;2206599;59;2278;-69
2022/03/02 12:40:39;;;;;;;;;;;;;;;;;;2206262;59;1908;-69
2022/03/02 12:43:14;;;;;;;;;;;;;;;;;;2205165;59;2618;-69
2022/03/02 12:45:49;;;;;;;;;;;;;;;;;;2207348;59;1366;-69
2022/03/02 12:48:24;;;;;;;;;;;;;;;;;;2207243;59;1427;-69
2022/03/02 12:50:57;;;;;;;;;;;;;;;;;;2207836;59;1224;-69
2022/03/02 12:53:30;;;;;;;;;;;;;;;;;;2207874;59;2093;-69
2022/03/02 12:56:06;;;;;;;;;;;;;;;;;;2208252;59;1214;-69
2022/03/02 12:58:40;;;;;;;;;;;;;;;;;;2207561;59;1680;-69
2022/03/02 13:01:13;;;;;;;;;;;;;;;;;;2207460;59;1188;-68
2022/03/02 13:03:49;;;;;;;;;;;;;;;;;;2208480;67;1983;-69
2022/03/02 13:06:27;;;;;;;;;;;;;;;;;;2208142;59;1179;-69
2022/03/02 13:09:04;;;;;;;;;;;;;;;;;;2207458;59;1910;-68
2022/03/02 13:11:40;;;;;;;;;;;;;;;;;;2207304;59;1156;-69
2022/03/02 13:14:28;;;;;;;;;;;;;;;;;;2207719;59;2374;-68
2022/03/02 13:17:15;;;;;;;;;;;;;;;;;;2207528;59;1123;-69
2022/03/02 13:19:49;;;;;;;;;;;;;;;;;;2207438;59;1547;-69
2022/03/02 13:22:25;;;;;;;;;;;;;;;;;;2206816;59;1211;-69
2022/03/02 13:24:59;;;;;;;;;;;;;;;;;;2207849;59;1947;-68
2022/03/02 13:27:36;;;;;;;;;;;;;;;;;;2207740;59;1249;-69
2022/03/02 13:30:10;;;;;;;;;;;;;;;;;;2207826;59;1323;-69
2022/03/02 13:32:54;;;;;;;;;;;;;;;;;;2207662;59;1346;-69
2022/03/02 13:35:29;;;;;;;;;;;;;;;;;;2208330;67;1232;-69
2022/03/02 13:38:04;;;;;;;;;;;;;;;;;;2207637;59;1473;-69
2022/03/02 13:40:38;;;;;;;;;;;;;;;;;;2208373;59;2107;-69
2022/03/02 13:43:37;;;;;;;;;;;;;;;;;;2205495;59;2898;-68
2022/03/02 13:46:21;;;;;;;;;;;;;;;;;;2205542;59;2490;-69
2022/03/02 13:48:55;;;;;;;;;;;;;;;;;;2207237;59;1327;-69
2022/03/02 13:51:28;;;;;;;;;;;;;;;;;;2207069;59;1192;-68
2022/03/02 13:54:03;;;;;;;;;;;;;;;;;;2208211;59;2026;-69
2022/03/02 13:56:40;;;;;;;;;;;;;;;;;;2207144;59;1246;-69
2022/03/02 13:59:26;;;;;;;;;;;;;;;;;;2207874;59;1590;-69
2022/03/02 14:01:59;;;;;;;;;;;;;;;;;;2208350;67;1063;-69
2022/03/02 14:04:35;;;;;;;;;;;;;;;;;;2206677;59;1908;-68
2022/03/02 14:07:08;;;;;;;;;;;;;;;;;;2207557;67;1090;-69
2022/03/02 14:09:42;;;;;;;;;;;;;;;;;;2206845;59;1568;-68
2022/03/02 14:12:16;;;;;;;;;;;;;;;;;;2207054;59;2054;-69
2022/03/02 14:14:52;;;;;;;;;;;;;;;;;;2206851;59;1455;-68
2022/03/02 14:17:28;;;;;;;;;;;;;;;;;;2205460;59;2655;-68
2022/03/02 14:20:01;;;;;;;;;;;;;;;;;;2208269;59;1630;-68
2022/03/02 14:22:34;;;;;;;;;;;;;;;;;;2199333;59;2100;-69
2022/03/02 14:25:14;;;;;;;;;;;;;;;;;;2208668;59;2148;-68
2022/03/02 14:27:47;;;;;;;;;;;;;;;;;;2207620;67;1017;-69
2022/03/02 14:30:23;;;;;;;;;;;;;;;;;;2208481;59;1342;-69
2022/03/02 14:32:56;;;;;;;;;;;;;;;;;;2208987;59;1490;-68
2022/03/02 14:35:30;;;;;;;;;;;;;;;;;;2207847;59;1202;-69
2022/03/02 14:38:05;;;;;;;;;;;;;;;;;;2207726;59;1235;-68
2022/03/02 14:40:39;;;;;;;;;;;;;;;;;;2207792;59;1983;-69
2022/03/02 14:43:13;;;;;;;;;;;;;;;;;;2208781;59;2806;-69
2022/03/02 14:45:49;;;;;;;;;;;;;;;;;;2205583;59;2215;-69
2022/03/02 14:48:24;;;;;;;;;;;;;;;;;;2205868;59;1257;-69
2022/03/02 14:50:58;;;;;;;;;;;;;;;;;;2207711;59;1530;-69
2022/03/02 14:53:33;;;;;;;;;;;;;;;;;;2207614;67;1288;-69
2022/03/02 14:56:07;;;;;;;;;;;;;;;;;;2207928;67;1308;-69
2022/03/02 14:58:41;;;;;;;;;;;;;;;;;;2207360;59;1946;-69
2022/03/02 15:01:18;;;;;;;;;;;;;;;;;;2207658;59;1245;-70
2022/03/02 15:03:54;;;;;;;;;;;;;;;;;;2207490;59;1984;-69
2022/03/02 15:06:28;;;;;;;;;;;;;;;;;;2207737;59;1244;-68
2022/03/02 15:09:02;;;;;;;;;;;;;;;;;;2207047;59;1711;-69
2022/03/02 15:11:37;;;;;;;;;;;;;;;;;;2208212;67;1063;-69
2022/03/02 15:17:04;;;;;;;;;;;;;;;;;;2204161;59;1112;-68
2022/03/02 15:19:39;;;;;;;;;;;;;;;;;;2204805;59;1625;-68
2022/03/02 15:22:14;;;;;;;;;;;;;;;;;;2205201;59;1293;-69
2022/03/02 15:24:51;;;;;;;;;;;;;;;;;;2205271;59;1933;-69
2022/03/02 15:27:25;;;;;;;;;;;;;;;;;;2204585;59;1173;-68
2022/03/02 15:30:09;;;;;;;;;;;;;;;;;;2204836;67;1220;-69
2022/03/02 15:32:45;;;;;;;;;;;;;;;;;;2205059;67;1205;-69
2022/03/02 15:35:20;;;;;;;;;;;;;;;;;;2205965;59;1239;-69
2022/03/02 15:37:56;;;;;;;;;;;;;;;;;;2205498;59;1082;-68
2022/03/02 15:40:34;;;;;;;;;;;;;;;;;;2205604;59;1587;-68
2022/03/02 15:43:08;;;;;;;;;;;;;;;;;;2204960;59;1909;-68
2022/03/02 15:45:42;;;;;;;;;;;;;;;;;;2203988;59;2458;-69
2022/03/02 15:48:19;;;;;;;;;;;;;;;;;;2204394;59;2523;-68
2022/03/02 15:50:54;;;;;;;;;;;;;;;;;;2204736;67;1112;-69
2022/03/02 15:53:28;;;;;;;;;;;;;;;;;;2203705;59;2044;-69
2022/03/02 15:56:01;;;;;;;;;;;;;;;;;;2204977;59;1268;-69
2022/03/02 15:58:36;;;;;;;;;;;;;;;;;;2203493;59;1561;-69
2022/03/02 16:01:17;;;;;;;;;;;;;;;;;;2205229;67;1248;-69
2022/03/02 16:03:56;;;;;;;;;;;;;;;;;;2204582;59;1929;-69
2022/03/02 16:06:30;;;;;;;;;;;;;;;;;;2204661;59;2048;-69
2022/03/02 16:09:14;;;;;;;;;;;;;;;;;;2205061;67;1321;-69
2022/03/02 16:11:49;;;;;;;;;;;;;;;;;;2205452;67;1142;-69
2022/03/02 16:14:23;;;;;;;;;;;;;;;;;;2206120;59;1283;-68
2022/03/02 16:16:56;;;;;;;;;;;;;;;;;;2208281;67;1139;-68
2022/03/02 16:19:32;;;;;;;;;;;;;;;;;;2207800;59;1718;-69
2022/03/02 16:22:06;;;;;;;;;;;;;;;;;;2206179;59;1602;-69
2022/03/02 16:24:40;;;;;;;;;;;;;;;;;;2208530;59;1947;-68
2022/03/02 16:27:13;;;;;;;;;;;;;;;;;;2208277;67;1198;-69
2022/03/02 16:29:48;;;;;;;;;;;;;;;;;;2208064;59;1282;-68
2022/03/02 16:32:21;;;;;;;;;;;;;;;;;;2206552;59;2055;-69
2022/03/02 16:34:58;;;;;;;;;;;;;;;;;;2207681;59;1122;-69
2022/03/02 16:37:31;;;;;;;;;;;;;;;;;;2207224;59;1231;-69
2022/03/02 16:40:05;;;;;;;;;;;;;;;;;;2207808;59;1569;-68
2022/03/02 16:42:38;;;;;;;;;;;;;;;;;;2206740;59;2015;-69
2022/03/02 16:45:11;;;;;;;;;;;;;;;;;;2207410;67;2759;-68
2022/03/02 16:47:45;;;;;;;;;;;;;;;;;;2206321;59;2141;-68
2022/03/02 16:50:21;;;;;;;;;;;;;;;;;;2207107;59;1222;-69
2022/03/02 16:52:56;;;;;;;;;;;;;;;;;;2208481;59;1697;-69
2022/03/02 16:55:29;;;;;;;;;;;;;;;;;;2208528;67;1235;-69
2022/03/02 16:58:02;;;;;;;;;;;;;;;;;;2207949;67;1187;-69
2022/03/02 17:00:40;;;;;;;;;;;;;;;;;;2209682;53;3738;-69
2022/03/02 17:03:16;;;;;;;;;;;;;;;;;;2209843;59;1186;-70
2022/03/02 17:05:53;;;;;;;;;;;;;;;;;;2211481;67;1929;-69
2022/03/02 17:08:26;;;;;;;;;;;;;;;;;;2209872;59;1743;-69
2022/03/02 17:10:59;;;;;;;;;;;;;;;;;;2207644;59;1581;-70
2022/03/02 17:13:34;;;;;;;;;;;;;;;;;;2207763;59;1364;-69
2022/03/02 17:16:11;;;;;;;;;;;;;;;;;;2208483;59;1317;-69
2022/03/02 17:18:44;;;;;;;;;;;;;;;;;;2207432;59;1632;-69
2022/03/02 17:21:21;;;;;;;;;;;;;;;;;;2207866;67;1261;-70
2022/03/02 17:23:54;;;;;;;;;;;;;;;;;;2208983;59;1438;-70
2022/03/02 17:26:28;;;;;;;;;;;;;;;;;;2207177;67;1937;-69
2022/03/02 17:29:02;;;;;;;;;;;;;;;;;;2207594;59;1726;-69
2022/03/02 17:31:35;;;;;;;;;;;;;;;;;;2207790;59;1662;-70
2022/03/02 17:34:08;;;;;;;;;;;;;;;;;;2207658;59;1512;-69
2022/03/02 17:36:45;;;;;;;;;;;;;;;;;;2206590;59;1898;-69
2022/03/02 17:39:18;;;;;;;;;;;;;;;;;;2206219;59;1614;-69
2022/03/02 17:41:51;;;;;;;;;;;;;;;;;;2207319;59;1089;-70
2022/03/02 17:44:25;;;;;;;;;;;;;;;;;;2207808;67;1967;-69
2022/03/02 17:46:58;;;;;;;;;;;;;;;;;;2207922;59;2541;-69
2022/03/02 17:49:32;;;;;;;;;;;;;;;;;;2205655;59;2344;-69
2022/03/02 17:52:08;;;;;;;;;;;;;;;;;;2206592;59;1232;-69
2022/03/02 17:54:42;;;;;;;;;;;;;;;;;;2204882;59;1636;-69
2022/03/02 17:57:15;;;;;;;;;;;;;;;;;;2206654;67;1114;-69
2022/03/02 17:59:49;;;;;;;;;;;;;;;;;;2206404;59;1584;-69